sensor_id;sensor_type;location;lat;lon;timestamp;pressure;altitude;pressure_sealevel;temperature;humidity
30967;BME280;17649;51.836;8.330;2023-04-06T00:01:55;101308.13;;;3.40;100.00
30967;BME280;17649;51.836;8.330;2023-04-06T00:04:55;101299.66;;;3.37;100.00
30967;BME280;17649;51.836;8.330;2023-04-06T00:07:57;101294.59;;;3.34;100.00
30967;BME280;17649;51.836;8.330;2023-04-06T00:10:58;101297.13;;;3.34;100.00
30967;BME280;17649;51.836;8.330;2023-04-06T00:13:58;101295.50;;;3.29;100.00
30967;BME280;17649;51.836;8.330;2023-04-06T00:16:59;101285.38;;;3.22;100.00
30967;BME280;17649;51.836;8.330;2023-04-06T00:20:00;101288.03;;;3.14;100.00
30967;BME280;17649;51.836;8.330;2023-04-06T00:23:00;101279.53;;;3.14;100.00
30967;BME280;17649;51.836;8.330;2023-04-06T00:26:01;101284.63;;;3.12;100.00
30967;BME280;17649;51.836;8.330;2023-04-06T00:29:01;101268.53;;;3.07;100.00
30967;BME280;17649;51.836;8.330;2023-04-06T00:32:01;101273.63;;;3.07;100.00
30967;BME280;17649;51.836;8.330;2023-04-06T00:35:03;101274.53;;;3.05;100.00
30967;BME280;17649;51.836;8.330;2023-04-06T00:38:03;101282.28;;;2.97;100.00
30967;BME280;17649;51.836;8.330;2023-04-06T00:41:04;101275.53;;;2.93;100.00
30967;BME280;17649;51.836;8.330;2023-04-06T00:44:04;101262.03;;;2.85;100.00
30967;BME280;17649;51.836;8.330;2023-04-06T00:47:05;101265.44;;;2.84;100.00
30967;BME280;17649;51.836;8.330;2023-04-06T00:50:06;101260.38;;;2.79;100.00
30967;BME280;17649;51.836;8.330;2023-04-06T00:53:06;101255.31;;;2.75;100.00
30967;BME280;17649;51.836;8.330;2023-04-06T00:56:07;101248.59;;;2.67;100.00
30967;BME280;17649;51.836;8.330;2023-04-06T00:59:11;101242.69;;;2.62;100.00
30967;BME280;17649;51.836;8.330;2023-04-06T01:02:11;101243.53;;;2.63;100.00
30967;BME280;17649;51.836;8.330;2023-04-06T01:05:12;101243.56;;;2.61;100.00
30967;BME280;17649;51.836;8.330;2023-04-06T01:08:13;101240.22;;;2.56;100.00
30967;BME280;17649;51.836;8.330;2023-04-06T01:11:13;101246.16;;;2.58;100.00
30967;BME280;17649;51.836;8.330;2023-04-06T01:14:14;101237.69;;;2.56;100.00
30967;BME280;17649;51.836;8.330;2023-04-06T01:17:14;101237.69;;;2.56;100.00
30967;BME280;17649;51.836;8.330;2023-04-06T01:20:15;101230.97;;;2.46;100.00
30967;BME280;17649;51.836;8.330;2023-04-06T01:23:15;101232.59;;;2.52;100.00
30967;BME280;17649;51.836;8.330;2023-04-06T01:26:16;101228.34;;;2.52;100.00
30967;BME280;17649;51.836;8.330;2023-04-06T01:29:17;101231.75;;;2.54;100.00
30967;BME280;17649;51.836;8.330;2023-04-06T01:32:17;101230.88;;;2.55;100.00
30967;BME280;17649;51.836;8.330;2023-04-06T01:35:19;101228.25;;;2.60;100.00
30967;BME280;17649;51.836;8.330;2023-04-06T01:38:19;101225.78;;;2.55;100.00
30967;BME280;17649;51.836;8.330;2023-04-06T01:41:20;101217.25;;;2.56;100.00
30967;BME280;17649;51.836;8.330;2023-04-06T01:44:20;101215.50;;;2.58;100.00
30967;BME280;17649;51.836;8.330;2023-04-06T01:47:21;101205.38;;;2.49;100.00
30967;BME280;17649;51.836;8.330;2023-04-06T01:50:21;101213.00;;;2.55;100.00
30967;BME280;17649;51.836;8.330;2023-04-06T01:53:21;101207.91;;;2.54;100.00
30967;BME280;17649;51.836;8.330;2023-04-06T01:56:22;101202.78;;;2.55;100.00
30967;BME280;17649;51.836;8.330;2023-04-06T01:59:22;101202.78;;;2.52;100.00
30967;BME280;17649;51.836;8.330;2023-04-06T02:02:23;101198.53;;;2.54;100.00
30967;BME280;17649;51.836;8.330;2023-04-06T02:05:24;101201.09;;;2.54;100.00
30967;BME280;17649;51.836;8.330;2023-04-06T02:08:24;101206.28;;;2.47;100.00
30967;BME280;17649;51.836;8.330;2023-04-06T02:11:25;101201.22;;;2.42;100.00
30967;BME280;17649;51.836;8.330;2023-04-06T02:14:25;101198.72;;;2.36;100.00
30967;BME280;17649;51.836;8.330;2023-04-06T02:17:26;101195.38;;;2.32;100.00
30967;BME280;17649;51.836;8.330;2023-04-06T02:20:26;101195.47;;;2.26;100.00
30967;BME280;17649;51.836;8.330;2023-04-06T02:23:27;101200.59;;;2.25;100.00
30967;BME280;17649;51.836;8.330;2023-04-06T02:26:27;101204.88;;;2.20;100.00
30967;BME280;17649;51.836;8.330;2023-04-06T02:29:27;101204.03;;;2.19;100.00
30967;BME280;17649;51.836;8.330;2023-04-06T02:32:28;101205.84;;;2.11;100.00
30967;BME280;17649;51.836;8.330;2023-04-06T02:35:29;101186.41;;;1.99;100.00
30967;BME280;17649;51.836;8.330;2023-04-06T02:38:30;101200.78;;;2.06;100.00
30967;BME280;17649;51.836;8.330;2023-04-06T02:41:30;101200.78;;;2.05;100.00
30967;BME280;17649;51.836;8.330;2023-04-06T02:44:31;101200.81;;;2.03;100.00
30967;BME280;17649;51.836;8.330;2023-04-06T02:47:33;101189.84;;;1.95;100.00
30967;BME280;17649;51.836;8.330;2023-04-06T02:50:33;101199.22;;;1.93;100.00
30967;BME280;17649;51.836;8.330;2023-04-06T02:53:33;101193.41;;;1.82;100.00
30967;BME280;17649;51.836;8.330;2023-04-06T02:56:33;101197.63;;;1.83;100.00
30967;BME280;17649;51.836;8.330;2023-04-06T02:59:34;101203.63;;;1.79;100.00
30967;BME280;17649;51.836;8.330;2023-04-06T03:02:35;101199.34;;;1.83;100.00
30967;BME280;17649;51.836;8.330;2023-04-06T03:05:35;101201.91;;;1.78;100.00
30967;BME280;17649;51.836;8.330;2023-04-06T03:08:36;101201.03;;;1.84;100.00
30967;BME280;17649;51.836;8.330;2023-04-06T03:11:36;101201.03;;;1.84;100.00
30967;BME280;17649;51.836;8.330;2023-04-06T03:14:37;101191.72;;;1.76;100.00
30967;BME280;17649;51.836;8.330;2023-04-06T03:17:38;101190.03;;;1.77;100.00
30967;BME280;17649;51.836;8.330;2023-04-06T03:20:38;101194.28;;;1.76;100.00
30967;BME280;17649;51.836;8.330;2023-04-06T03:23:39;101195.16;;;1.75;100.00
30967;BME280;17649;51.836;8.330;2023-04-06T03:26:39;101198.53;;;1.76;100.00
30967;BME280;17649;51.836;8.330;2023-04-06T03:29:40;101201.09;;;1.74;100.00
30967;BME280;17649;51.836;8.330;2023-04-06T03:32:40;101191.75;;;1.75;100.00
30967;BME280;17649;51.836;8.330;2023-04-06T03:35:40;101192.66;;;1.69;100.00
30967;BME280;17649;51.836;8.330;2023-04-06T03:38:41;101189.28;;;1.67;100.00
30967;BME280;17649;51.836;8.330;2023-04-06T03:41:41;101200.38;;;1.62;100.00
30967;BME280;17649;51.836;8.330;2023-04-06T03:44:42;101192.78;;;1.57;100.00
30967;BME280;17649;51.836;8.330;2023-04-06T03:47:43;101198.81;;;1.50;100.00
30967;BME280;17649;51.836;8.330;2023-04-06T03:50:43;101196.22;;;1.53;100.00
30967;BME280;17649;51.836;8.330;2023-04-06T03:53:44;101190.31;;;1.49;100.00
30967;BME280;17649;51.836;8.330;2023-04-06T03:56:46;101196.25;;;1.45;100.00
30967;BME280;17649;51.836;8.330;2023-04-06T03:59:46;101202.25;;;1.41;100.00
30967;BME280;17649;51.836;8.330;2023-04-06T04:02:46;101196.28;;;1.44;100.00
30967;BME280;17649;51.836;8.330;2023-04-06T04:05:47;101198.03;;;1.39;100.00
30967;BME280;17649;51.836;8.330;2023-04-06T04:08:47;101192.97;;;1.36;100.00
30967;BME280;17649;51.836;8.330;2023-04-06T04:11:47;101195.50;;;1.36;100.00
30967;BME280;17649;51.836;8.330;2023-04-06T04:14:48;101199.75;;;1.37;100.00
30967;BME280;17649;51.836;8.330;2023-04-06T04:17:48;101204.00;;;1.36;100.00
30967;BME280;17649;51.836;8.330;2023-04-06T04:20:50;101198.97;;;1.27;100.00
30967;BME280;17649;51.836;8.330;2023-04-06T04:23:51;101204.03;;;1.30;100.00
30967;BME280;17649;51.836;8.330;2023-04-06T04:26:52;101198.13;;;1.27;100.00
30967;BME280;17649;51.836;8.330;2023-04-06T04:29:53;101204.84;;;1.37;100.00
30967;BME280;17649;51.836;8.330;2023-04-06T04:32:53;101204.03;;;1.35;100.00
30967;BME280;17649;51.836;8.330;2023-04-06T04:35:53;101204.00;;;1.36;100.00
30967;BME280;17649;51.836;8.330;2023-04-06T04:38:54;101203.16;;;1.36;100.00
30967;BME280;17649;51.836;8.330;2023-04-06T04:41:55;101199.75;;;1.34;100.00
30967;BME280;17649;51.836;8.330;2023-04-06T04:44:55;101198.97;;;1.29;100.00
30967;BME280;17649;51.836;8.330;2023-04-06T04:47:55;101197.22;;;1.32;100.00
30967;BME280;17649;51.836;8.330;2023-04-06T04:50:56;101202.31;;;1.35;100.00
30967;BME280;17649;51.836;8.330;2023-04-06T04:53:56;101189.59;;;1.29;100.00
30967;BME280;17649;51.836;8.330;2023-04-06T04:56:56;101197.28;;;1.26;100.00
30967;BME280;17649;51.836;8.330;2023-04-06T04:59:57;101198.06;;;1.31;100.00
30967;BME280;17649;51.836;8.330;2023-04-06T05:02:58;101189.69;;;1.22;100.00
30967;BME280;17649;51.836;8.330;2023-04-06T05:05:58;101189.66;;;1.23;100.00
30967;BME280;17649;51.836;8.330;2023-04-06T05:08:59;101188.00;;;1.21;100.00
30967;BME280;17649;51.836;8.330;2023-04-06T05:11:59;101205.75;;;1.28;100.00
30967;BME280;17649;51.836;8.330;2023-04-06T05:15:00;101195.53;;;1.30;100.00
30967;BME280;17649;51.836;8.330;2023-04-06T05:18:01;101208.28;;;1.34;100.00
30967;BME280;17649;51.836;8.330;2023-04-06T05:21:02;101213.38;;;1.34;100.00
30967;BME280;17649;51.836;8.330;2023-04-06T05:24:02;101205.66;;;1.40;100.00
30967;BME280;17649;51.836;8.330;2023-04-06T05:27:03;101203.09;;;1.42;100.00
30967;BME280;17649;51.836;8.330;2023-04-06T05:30:04;101198.75;;;1.55;100.00
30967;BME280;17649;51.836;8.330;2023-04-06T05:33:04;101200.44;;;1.56;100.00
30967;BME280;17649;51.836;8.330;2023-04-06T05:36:05;101198.69;;;1.61;100.00
30967;BME280;17649;51.836;8.330;2023-04-06T05:39:07;101200.34;;;1.63;100.00
30967;BME280;17649;51.836;8.330;2023-04-06T05:42:07;101194.38;;;1.67;100.00
30967;BME280;17649;51.836;8.330;2023-04-06T05:45:09;101203.63;;;1.76;100.00
30967;BME280;17649;51.836;8.330;2023-04-06T05:48:10;101205.28;;;1.83;100.00
30967;BME280;17649;51.836;8.330;2023-04-06T05:51:11;101200.16;;;1.85;100.00
30967;BME280;17649;51.836;8.330;2023-04-06T05:54:11;101198.47;;;1.85;100.00
30967;BME280;17649;51.836;8.330;2023-04-06T05:57:11;101203.50;;;1.90;100.00
30967;BME280;17649;51.836;8.330;2023-04-06T06:00:12;101210.25;;;1.98;100.00
30967;BME280;17649;51.836;8.330;2023-04-06T06:03:13;101206.75;;;2.05;100.00
30967;BME280;17649;51.836;8.330;2023-04-06T06:06:15;101195.59;;;2.14;100.00
30967;BME280;17649;51.836;8.330;2023-04-06T06:09:15;101204.03;;;2.21;100.00
30967;BME280;17649;51.836;8.330;2023-04-06T06:12:16;101196.28;;;2.30;100.00
30967;BME280;17649;51.836;8.330;2023-04-06T06:15:16;101191.06;;;2.39;100.00
30967;BME280;17649;51.836;8.330;2023-04-06T06:18:17;101190.00;;;2.52;100.00
30967;BME280;17649;51.836;8.330;2023-04-06T06:21:17;101188.94;;;2.72;100.00
30967;BME280;17649;51.836;8.330;2023-04-06T06:24:17;101191.16;;;2.93;100.00
30967;BME280;17649;51.836;8.330;2023-04-06T06:27:18;101181.47;;;3.16;100.00
30967;BME280;17649;51.836;8.330;2023-04-06T06:30:19;101183.56;;;3.44;100.00
30967;BME280;17649;51.836;8.330;2023-04-06T06:33:19;101190.13;;;3.60;100.00
30967;BME280;17649;51.836;8.330;2023-04-06T06:36:20;101189.03;;;3.73;100.00
30967;BME280;17649;51.836;8.330;2023-04-06T06:39:23;101185.41;;;3.83;100.00
30967;BME280;17649;51.836;8.330;2023-04-06T06:42:23;101186.91;;;3.95;100.00
30967;BME280;17649;51.836;8.330;2023-04-06T06:45:24;101180.81;;;4.02;100.00
30967;BME280;17649;51.836;8.330;2023-04-06T06:48:25;101175.53;;;4.10;100.00
30967;BME280;17649;51.836;8.330;2023-04-06T06:51:26;101174.56;;;4.17;100.00
30967;BME280;17649;51.836;8.330;2023-04-06T06:54:26;101178.47;;;4.35;100.00
30967;BME280;17649;51.836;8.330;2023-04-06T06:57:27;101179.78;;;4.53;100.00
30967;BME280;17649;51.836;8.330;2023-04-06T07:00:28;101171.06;;;4.61;100.00
30967;BME280;17649;51.836;8.330;2023-04-06T07:03:28;101172.72;;;4.64;100.00
30967;BME280;17649;51.836;8.330;2023-04-06T07:06:29;101175.69;;;4.84;100.00
30967;BME280;17649;51.836;8.330;2023-04-06T07:09:29;101166.78;;;4.99;100.00
30967;BME280;17649;51.836;8.330;2023-04-06T07:12:30;101162.34;;;5.05;100.00
30967;BME280;17649;51.836;8.330;2023-04-06T07:15:31;101162.88;;;5.20;100.00
30967;BME280;17649;51.836;8.330;2023-04-06T07:18:31;101155.06;;;5.24;100.00
30967;BME280;17649;51.836;8.330;2023-04-06T07:21:31;101153.00;;;5.38;100.00
30967;BME280;17649;51.836;8.330;2023-04-06T07:24:32;101159.31;;;5.59;100.00
30967;BME280;17649;51.836;8.330;2023-04-06T07:27:32;101156.47;;;5.70;100.00
30967;BME280;17649;51.836;8.330;2023-04-06T07:30:33;101167.25;;;5.83;100.00
30967;BME280;17649;51.836;8.330;2023-04-06T07:33:33;101158.41;;;5.94;100.00
30967;BME280;17649;51.836;8.330;2023-04-06T07:36:36;101162.91;;;6.17;100.00
30967;BME280;17649;51.836;8.330;2023-04-06T07:39:37;101156.75;;;6.23;100.00
30967;BME280;17649;51.836;8.330;2023-04-06T07:42:37;101157.44;;;6.30;100.00
30967;BME280;17649;51.836;8.330;2023-04-06T07:45:38;101161.50;;;6.37;100.00
30967;BME280;17649;51.836;8.330;2023-04-06T07:48:38;101147.06;;;6.61;100.00
30967;BME280;17649;51.836;8.330;2023-04-06T07:51:39;101151.47;;;6.57;100.00
30967;BME280;17649;51.836;8.330;2023-04-06T07:54:40;101148.56;;;6.68;100.00
30967;BME280;17649;51.836;8.330;2023-04-06T07:57:42;101150.44;;;6.91;100.00
30967;BME280;17649;51.836;8.330;2023-04-06T08:00:42;101141.34;;;7.07;100.00
30967;BME280;17649;51.836;8.330;2023-04-06T08:03:43;101143.56;;;7.17;100.00
30967;BME280;17649;51.836;8.330;2023-04-06T08:06:43;101150.91;;;7.28;100.00
30967;BME280;17649;51.836;8.330;2023-04-06T08:09:43;101155.16;;;7.31;100.00
30967;BME280;17649;51.836;8.330;2023-04-06T08:12:44;101144.25;;;7.49;100.00
30967;BME280;17649;51.836;8.330;2023-04-06T08:15:44;101140.28;;;7.64;100.00
30967;BME280;17649;51.836;8.330;2023-04-06T08:18:45;101139.34;;;7.66;100.00
30967;BME280;17649;51.836;8.330;2023-04-06T08:21:45;101141.13;;;7.64;100.00
30967;BME280;17649;51.836;8.330;2023-04-06T08:24:47;101138.63;;;7.86;100.00
30967;BME280;17649;51.836;8.330;2023-04-06T08:27:47;101128.00;;;7.95;100.00
30967;BME280;17649;51.836;8.330;2023-04-06T08:30:48;101135.50;;;8.01;100.00
30967;BME280;17649;51.836;8.330;2023-04-06T08:33:48;101144.38;;;7.94;100.00
30967;BME280;17649;51.836;8.330;2023-04-06T08:36:48;101134.88;;;8.18;100.00
30967;BME280;17649;51.836;8.330;2023-04-06T08:39:50;101139.50;;;8.33;100.00
30967;BME280;17649;51.836;8.330;2023-04-06T08:42:55;101140.78;;;8.45;100.00
30967;BME280;17649;51.836;8.330;2023-04-06T08:45:56;101132.97;;;8.48;100.00
30967;BME280;17649;51.836;8.330;2023-04-06T08:48:58;101141.22;;;8.56;100.00
30967;BME280;17649;51.836;8.330;2023-04-06T08:52:00;101129.72;;;8.65;100.00
30967;BME280;17649;51.836;8.330;2023-04-06T08:55:00;101132.72;;;8.76;100.00
30967;BME280;17649;51.836;8.330;2023-04-06T08:58:01;101124.91;;;9.00;100.00
30967;BME280;17649;51.836;8.330;2023-04-06T09:01:05;101129.63;;;9.10;100.00
30967;BME280;17649;51.836;8.330;2023-04-06T09:04:07;101120.53;;;9.22;100.00
30967;BME280;17649;51.836;8.330;2023-04-06T09:07:10;101124.91;;;9.20;100.00
30967;BME280;17649;51.836;8.330;2023-04-06T09:10:11;101115.81;;;9.32;100.00
30967;BME280;17649;51.836;8.330;2023-04-06T09:13:11;101109.34;;;9.21;100.00
30967;BME280;17649;51.836;8.330;2023-04-06T09:16:12;101112.41;;;9.51;100.00
30967;BME280;17649;51.836;8.330;2023-04-06T09:19:13;101117.53;;;9.53;100.00
30967;BME280;17649;51.836;8.330;2023-04-06T09:22:13;101108.50;;;9.82;100.00
30967;BME280;17649;51.836;8.330;2023-04-06T09:25:19;101115.84;;;10.10;100.00
30967;BME280;17649;51.836;8.330;2023-04-06T09:28:20;101106.94;;;10.36;100.00
30967;BME280;17649;51.836;8.330;2023-04-06T09:31:25;101104.19;;;10.58;100.00
30967;BME280;17649;51.836;8.330;2023-04-06T09:34:26;101091.41;;;10.17;98.92
30967;BME280;17649;51.836;8.330;2023-04-06T09:37:27;101093.31;;;10.32;96.74
30967;BME280;17649;51.836;8.330;2023-04-06T09:40:31;101101.16;;;10.10;93.49
30967;BME280;17649;51.836;8.330;2023-04-06T09:44:11;101091.41;;;10.36;96.38
30967;BME280;17649;51.836;8.330;2023-04-06T09:47:22;101087.84;;;10.38;95.07
30967;BME280;17649;51.836;8.330;2023-04-06T09:50:26;101077.25;;;10.62;95.03
30967;BME280;17649;51.836;8.330;2023-04-06T09:53:30;101063.34;;;10.82;90.90
30967;BME280;17649;51.836;8.330;2023-04-06T09:56:38;101071.59;;;10.90;86.93
30967;BME280;17649;51.836;8.330;2023-04-06T10:00:15;101070.66;;;10.91;83.65
30967;BME280;17649;51.836;8.330;2023-04-06T10:04:15;101085.38;;;11.08;81.13
30967;BME280;17649;51.836;8.330;2023-04-06T10:07:17;101076.38;;;11.15;82.03
30967;BME280;17649;51.836;8.330;2023-04-06T10:10:17;101083.94;;;11.19;81.31
30967;BME280;17649;51.836;8.330;2023-04-06T10:13:18;101075.00;;;11.25;80.25
30967;BME280;17649;51.836;8.330;2023-04-06T10:16:19;101082.91;;;11.39;76.29
30967;BME280;17649;51.836;8.330;2023-04-06T10:19:26;101074.19;;;11.57;71.27
30967;BME280;17649;51.836;8.330;2023-04-06T10:22:53;101070.09;;;11.86;77.42
30967;BME280;17649;51.836;8.330;2023-04-06T10:25:58;101070.44;;;11.80;72.50
30967;BME280;17649;51.836;8.330;2023-04-06T10:29:02;101065.94;;;12.15;76.95
30967;BME280;17649;51.836;8.330;2023-04-06T10:32:03;101078.63;;;11.88;64.87
30967;BME280;17649;51.836;8.330;2023-04-06T10:35:11;101071.94;;;11.84;65.11
30967;BME280;17649;51.836;8.330;2023-04-06T10:38:13;101064.00;;;11.87;62.90
30967;BME280;17649;51.836;8.330;2023-04-06T10:41:17;101074.31;;;12.20;64.38
30967;BME280;17649;51.836;8.330;2023-04-06T10:44:21;101073.53;;;12.34;61.79
30967;BME280;17649;51.836;8.330;2023-04-06T10:47:22;101066.03;;;12.75;59.24
30967;BME280;17649;51.836;8.330;2023-04-06T10:50:22;101069.84;;;12.54;55.95
30967;BME280;17649;51.836;8.330;2023-04-06T10:53:27;101060.28;;;12.70;60.06
30967;BME280;17649;51.836;8.330;2023-04-06T10:56:29;101061.53;;;12.63;57.86
30967;BME280;17649;51.836;8.330;2023-04-06T10:59:30;101042.66;;;13.05;57.94
30967;BME280;17649;51.836;8.330;2023-04-06T11:02:31;101059.47;;;13.14;55.50
30967;BME280;17649;51.836;8.330;2023-04-06T11:05:32;101036.41;;;13.24;61.37
30967;BME280;17649;51.836;8.330;2023-04-06T11:08:33;101038.19;;;13.66;55.68
30967;BME280;17649;51.836;8.330;2023-04-06T11:11:38;101032.03;;;13.67;54.72
30967;BME280;17649;51.836;8.330;2023-04-06T11:14:40;101035.97;;;13.74;50.75
30967;BME280;17649;51.836;8.330;2023-04-06T11:17:42;101045.34;;;14.18;54.62
30967;BME280;17649;51.836;8.330;2023-04-06T11:20:47;101036.94;;;14.00;47.29
30967;BME280;17649;51.836;8.330;2023-04-06T11:23:48;101039.06;;;14.49;46.83
30967;BME280;17649;51.836;8.330;2023-04-06T11:26:54;101033.91;;;14.87;46.08
30967;BME280;17649;51.836;8.330;2023-04-06T11:29:55;101026.47;;;15.33;47.24
30967;BME280;17649;51.836;8.330;2023-04-06T11:33:00;101025.81;;;15.55;45.05
30967;BME280;17649;51.836;8.330;2023-04-06T11:36:02;101019.22;;;15.75;42.66
30967;BME280;17649;51.836;8.330;2023-04-06T11:39:03;101031.56;;;15.60;41.78
30967;BME280;17649;51.836;8.330;2023-04-06T11:42:03;101009.56;;;16.73;40.85
30967;BME280;17649;51.836;8.330;2023-04-06T11:45:04;101018.31;;;17.07;37.90
30967;BME280;17649;51.836;8.330;2023-04-06T11:48:18;101009.44;;;18.31;36.80
30967;BME280;17649;51.836;8.330;2023-04-06T11:51:22;101010.53;;;18.49;35.38
30967;BME280;17649;51.836;8.330;2023-04-06T11:54:37;101006.69;;;17.22;36.97
30967;BME280;17649;51.836;8.330;2023-04-06T11:57:37;101008.81;;;17.06;35.84
30967;BME280;17649;51.836;8.330;2023-04-06T12:00:38;101009.22;;;16.05;37.75
30967;BME280;17649;51.836;8.330;2023-04-06T12:03:38;101003.13;;;16.18;37.77
30967;BME280;17649;51.836;8.330;2023-04-06T12:06:38;101000.41;;;16.43;38.16
30967;BME280;17649;51.836;8.330;2023-04-06T12:09:39;101006.34;;;16.69;36.77
30967;BME280;17649;51.836;8.330;2023-04-06T12:12:40;101004.84;;;16.30;37.62
30967;BME280;17649;51.836;8.330;2023-04-06T12:15:40;100993.59;;;17.22;38.59
30967;BME280;17649;51.836;8.330;2023-04-06T12:18:40;100989.41;;;17.98;36.11
30967;BME280;17649;51.836;8.330;2023-04-06T12:21:41;100988.16;;;17.47;37.09
30967;BME280;17649;51.836;8.330;2023-04-06T12:24:42;100990.13;;;18.32;36.86
30967;BME280;17649;51.836;8.330;2023-04-06T12:27:42;100993.28;;;17.26;35.37
30967;BME280;17649;51.836;8.330;2023-04-06T12:30:43;100984.94;;;17.21;35.32
30967;BME280;17649;51.836;8.330;2023-04-06T12:33:46;100985.50;;;17.81;35.33
30967;BME280;17649;51.836;8.330;2023-04-06T12:36:46;100981.03;;;19.40;31.68
30967;BME280;17649;51.836;8.330;2023-04-06T12:39:47;100982.19;;;17.23;34.38
30967;BME280;17649;51.836;8.330;2023-04-06T12:42:47;100984.09;;;18.52;33.18
30967;BME280;17649;51.836;8.330;2023-04-06T12:45:47;100981.94;;;17.82;35.21
30967;BME280;17649;51.836;8.330;2023-04-06T12:48:48;100983.28;;;17.76;35.67
30967;BME280;17649;51.836;8.330;2023-04-06T12:51:48;100967.75;;;16.73;35.79
30967;BME280;17649;51.836;8.330;2023-04-06T12:54:49;100974.94;;;16.34;38.46
30967;BME280;17649;51.836;8.330;2023-04-06T12:57:49;100970.19;;;16.98;36.59
30967;BME280;17649;51.836;8.330;2023-04-06T13:00:50;100977.84;;;18.00;36.65
30967;BME280;17649;51.836;8.330;2023-04-06T13:03:51;100968.47;;;19.93;34.36
30967;BME280;17649;51.836;8.330;2023-04-06T13:06:52;100954.31;;;18.95;33.93
30967;BME280;17649;51.836;8.330;2023-04-06T13:09:52;100966.13;;;17.39;35.73
30967;BME280;17649;51.836;8.330;2023-04-06T13:12:53;100964.63;;;19.98;34.29
30967;BME280;17649;51.836;8.330;2023-04-06T13:15:58;100959.34;;;19.48;33.97
30967;BME280;17649;51.836;8.330;2023-04-06T13:18:59;100953.56;;;20.71;31.64
30967;BME280;17649;51.836;8.330;2023-04-06T13:21:59;100951.50;;;19.08;32.73
30967;BME280;17649;51.836;8.330;2023-04-06T13:25:00;100949.75;;;18.55;34.43
30967;BME280;17649;51.836;8.330;2023-04-06T13:28:00;100954.03;;;17.26;35.69
30967;BME280;17649;51.836;8.330;2023-04-06T13:31:02;100944.50;;;17.59;37.08
30967;BME280;17649;51.836;8.330;2023-04-06T13:34:02;100954.97;;;17.37;36.14
30967;BME280;17649;51.836;8.330;2023-04-06T13:37:02;100958.66;;;17.56;35.34
30967;BME280;17649;51.836;8.330;2023-04-06T13:40:03;100948.59;;;18.27;36.06
30967;BME280;17649;51.836;8.330;2023-04-06T13:43:04;100939.53;;;19.24;35.74
30967;BME280;17649;51.836;8.330;2023-04-06T13:46:05;100935.00;;;20.73;33.54
30967;BME280;17649;51.836;8.330;2023-04-06T13:49:06;100933.31;;;19.56;31.87
30967;BME280;17649;51.836;8.330;2023-04-06T13:52:06;100930.47;;;20.17;31.58
30967;BME280;17649;51.836;8.330;2023-04-06T13:55:07;100929.56;;;19.18;32.13
30967;BME280;17649;51.836;8.330;2023-04-06T13:58:07;100926.31;;;18.74;32.48
30967;BME280;17649;51.836;8.330;2023-04-06T14:01:08;100924.84;;;18.40;32.68
30967;BME280;17649;51.836;8.330;2023-04-06T14:04:09;100930.31;;;18.99;33.69
30967;BME280;17649;51.836;8.330;2023-04-06T14:07:10;100925.00;;;19.51;33.74
30967;BME280;17649;51.836;8.330;2023-04-06T14:10:10;100938.16;;;17.84;33.91
30967;BME280;17649;51.836;8.330;2023-04-06T14:13:14;100925.13;;;17.73;33.27
30967;BME280;17649;51.836;8.330;2023-04-06T14:16:14;100928.03;;;18.43;34.27
30967;BME280;17649;51.836;8.330;2023-04-06T14:19:19;100924.91;;;19.72;33.36
30967;BME280;17649;51.836;8.330;2023-04-06T14:22:19;100921.19;;;19.34;32.39
30967;BME280;17649;51.836;8.330;2023-04-06T14:25:20;100922.41;;;20.38;33.81
30967;BME280;17649;51.836;8.330;2023-04-06T14:28:27;100921.91;;;19.46;32.57
30967;BME280;17649;51.836;8.330;2023-04-06T14:31:32;100930.56;;;18.13;33.97
30967;BME280;17649;51.836;8.330;2023-04-06T14:34:32;100921.81;;;16.92;34.11
30967;BME280;17649;51.836;8.330;2023-04-06T14:37:33;100924.63;;;16.32;35.63
30967;BME280;17649;51.836;8.330;2023-04-06T14:40:35;100924.22;;;16.60;35.52
30967;BME280;17649;51.836;8.330;2023-04-06T14:43:37;100917.69;;;17.67;35.90
30967;BME280;17649;51.836;8.330;2023-04-06T14:46:37;100917.25;;;17.50;35.81
30967;BME280;17649;51.836;8.330;2023-04-06T14:49:38;100911.09;;;16.95;35.23
30967;BME280;17649;51.836;8.330;2023-04-06T14:52:38;100911.63;;;17.12;36.20
30967;BME280;17649;51.836;8.330;2023-04-06T14:55:39;100908.84;;;16.68;37.37
30967;BME280;17649;51.836;8.330;2023-04-06T14:58:41;100902.84;;;16.20;36.78
30967;BME280;17649;51.836;8.330;2023-04-06T15:01:41;100904.34;;;16.00;38.40
30967;BME280;17649;51.836;8.330;2023-04-06T15:04:42;100919.16;;;16.24;38.21
30967;BME280;17649;51.836;8.330;2023-04-06T15:07:42;100906.25;;;16.45;38.71
30967;BME280;17649;51.836;8.330;2023-04-06T15:10:43;100903.38;;;16.25;38.22
30967;BME280;17649;51.836;8.330;2023-04-06T15:13:43;100913.72;;;15.79;38.93
30967;BME280;17649;51.836;8.330;2023-04-06T15:16:44;100908.56;;;15.66;40.84
30967;BME280;17649;51.836;8.330;2023-04-06T15:19:44;100912.13;;;15.52;40.38
30967;BME280;17649;51.836;8.330;2023-04-06T15:22:45;100907.88;;;15.39;41.18
30967;BME280;17649;51.836;8.330;2023-04-06T15:25:46;100903.66;;;15.62;40.80
30967;BME280;17649;51.836;8.330;2023-04-06T15:28:47;100900.00;;;15.64;40.88
30967;BME280;17649;51.836;8.330;2023-04-06T15:31:50;100899.03;;;15.29;40.83
30967;BME280;17649;51.836;8.330;2023-04-06T15:34:50;100901.16;;;15.60;41.51
30967;BME280;17649;51.836;8.330;2023-04-06T15:37:55;100897.13;;;15.31;42.35
30967;BME280;17649;51.836;8.330;2023-04-06T15:40:55;100900.94;;;15.01;42.47
30967;BME280;17649;51.836;8.330;2023-04-06T15:43:56;100889.03;;;15.23;42.77
30967;BME280;17649;51.836;8.330;2023-04-06T15:46:56;100889.97;;;15.34;41.91
30967;BME280;17649;51.836;8.330;2023-04-06T15:49:57;100892.41;;;15.85;44.70